Terminal Aerodrome Forecast
Issued by NWS

Home | Current Version | Previous Version | Text Only | Print | Product List | Glossary On
Versions: 1 2 3 4 5 6 7 8 9 10 11 12 13 14 15 16 17 18 19 20 21 22 23 24 25 26 27 28 29
883
FTUS43 KGRR 242340
TAFLAN
TAF
KLAN 242340Z 2500/2524 18008G27KT 4SM -TSRA BR VCTS SCT016 BKN035CB
      TEMPO 2500/2502 23012G25KT 1/4SM +TSRA FG FEW010 BKN029
      OVC040CB
     FM250200 22008KT 2SM -SHRA BR OVC007
     FM250300 23009KT 2SM -DZ BR OVC007
     FM251400 26014G26KT 4SM -SHSN BR OVC020=

USA.gov is the U.S. government's official web portal to all federal, state and local government web resources and services.